Etusivu
METAR-TAF:

METAR-TAF

Lentoasemat :

Forest City, Iowa, Yhdysvallat

Leveyspiiri: 43-14-05N, Pituuspiiri: 093-37-27W, korkeus merenpinnasta: 375 m

Tämänhetkinen sää

Tämä raportti tehtiin 22 minuuttia sitten, kello 10.15 UTC
Tuuli 13 kn etelästä puuskistuen 19 kn:hen
Lämpötila -6°C
Kosteus 73%
Ilmanpaine 1013 hPa
Näkyvyys: 16.1 km
Hajonneita pilviä 7000 ft:n korkeudessa
Pilvistä 9000 ft:n korkeudessa

METAR: KFXY 131015Z AUTO 18013G19KT 10SM BKN070 OVC090 M06/M10 A2991 RMK AO2

Aika: 04:37 (10:37 UTC)


TAF: puuttuu

Säähavainnot ja -ennusteet yli 4000 lentoasemalta (METAR- ja TAF-raportit).

Käytössä olevat sääasemat on merkitty karttaan keltaisilla ja punaisilla pisteillä.

Aseta hiiri pisteen päälle nähdäksesi sääaseman nimen.

Klikkaa sitten nähdäksesi säähavainnot ja -ennusteet.

Kartan vaihtaminen: klikkaa mustalla rastilla varustettuja vihreitä pisteitä, niin voit zoomata sisään; viivalla varustettua vihreää pistettä, niin voit zoomata ulos tai vihreitä nuolia, niin pääset viereisille kartoille.


METAR-TAF: